Time;durP1;ratioP1;P1;durP2;ratioP2;P2;SDS_P1;SDS_P2;PMS_P1;PMS_P2;Temp;Humidity;BMP_temperature;BMP_pressure;BME280_temperature;BME280_humidity;BME280_pressure;Samples;Min_cycle;Max_cycle;Signal;HPM_P1;HPM_P2
2022/05/06 00:01:32;;;;;;;1999.90;999.90;;;8.90;99.90;;;;;;5032391;28;20455;-67
2022/05/06 00:03:59;;;;;;;1999.90;999.90;;;8.50;99.90;;;;;;5027031;28;20483;-68
2022/05/06 00:06:29;;;;;;;1999.90;999.90;;;8.60;99.90;;;;;;5031421;28;20924;-69
2022/05/06 00:08:55;;;;;;;1999.90;999.90;;;8.30;99.90;;;;;;5026633;28;20490;-69
2022/05/06 00:11:22;;;;;;;1999.90;999.90;;;8.20;99.90;;;;;;5021268;28;20982;-68
2022/05/06 00:13:52;;;;;;;1999.90;999.90;;;8.20;99.90;;;;;;5029755;28;20486;-69
2022/05/06 00:16:19;;;;;;;1999.90;999.90;;;8.00;99.90;;;;;;5033597;28;20450;-69
2022/05/06 00:18:45;;;;;;;1999.90;999.90;;;8.10;99.90;;;;;;5029979;28;20532;-69
2022/05/06 00:21:12;;;;;;;1999.90;999.90;;;8.30;99.90;;;;;;5024540;28;20464;-69
2022/05/06 00:23:40;;;;;;;1999.90;999.90;;;8.40;99.90;;;;;;5027578;28;20491;-69
2022/05/06 00:26:07;;;;;;;1999.90;999.90;;;8.30;99.90;;;;;;5034161;28;20498;-69
2022/05/06 00:28:34;;;;;;;1999.90;999.90;;;8.10;99.90;;;;;;5031009;28;20497;-69
2022/05/06 00:31:01;;;;;;;1999.90;999.90;;;8.00;99.90;;;;;;5032848;28;20490;-69
2022/05/06 00:33:28;;;;;;;1999.90;999.90;;;8.10;99.90;;;;;;5029586;28;20494;-68
2022/05/06 00:35:55;;;;;;;1999.90;999.90;;;8.10;99.90;;;;;;5023782;28;20442;-69
2022/05/06 00:38:22;;;;;;;1999.90;999.90;;;8.20;99.90;;;;;;5029944;28;20447;-68
2022/05/06 00:40:50;;;;;;;1999.90;999.90;;;8.30;99.90;;;;;;5020983;28;20463;-68
2022/05/06 00:43:17;;;;;;;1999.90;999.90;;;8.30;99.90;;;;;;5030387;28;20998;-69
2022/05/06 00:45:48;;;;;;;1999.90;999.90;;;8.30;99.90;;;;;;5021947;28;20487;-69
2022/05/06 00:48:16;;;;;;;1999.90;999.90;;;8.20;99.90;;;;;;5032489;28;20443;-69
2022/05/06 00:50:43;;;;;;;1999.90;999.90;;;8.10;99.90;;;;;;5021405;28;20467;-69
2022/05/06 00:53:10;;;;;;;1999.90;999.90;;;7.90;99.90;;;;;;5031303;28;20451;-69
2022/05/06 00:55:37;;;;;;;1999.90;999.90;;;8.00;99.90;;;;;;5022969;28;20466;-68
2022/05/06 00:58:06;;;;;;;1999.90;999.90;;;7.90;99.90;;;;;;5032201;28;20959;-69
2022/05/06 01:00:33;;;;;;;1999.90;999.90;;;7.80;99.90;;;;;;5021707;28;20463;-68
2022/05/06 01:03:00;;;;;;;1999.90;999.90;;;8.00;99.90;;;;;;5024856;28;20489;-68
2022/05/06 01:05:27;;;;;;;1999.90;999.90;;;8.10;99.90;;;;;;5030567;28;20486;-68
2022/05/06 01:07:54;;;;;;;1999.90;999.90;;;8.20;99.90;;;;;;5022343;28;20492;-69
2022/05/06 01:10:22;;;;;;;1999.90;999.90;;;8.10;99.90;;;;;;5021267;28;20955;-69
2022/05/06 01:12:50;;;;;;;1999.90;999.90;;;7.90;99.90;;;;;;5024390;28;20459;-69
2022/05/06 01:15:19;;;;;;;1999.90;999.90;;;7.90;99.90;;;;;;5030865;28;20463;-69
2022/05/06 01:17:47;;;;;;;1999.90;999.90;;;7.90;99.90;;;;;;5026913;28;20512;-69
2022/05/06 01:20:16;;;;;;;1999.90;999.90;;;7.80;99.90;;;;;;5023339;28;20538;-69
2022/05/06 01:22:45;;;;;;;1999.90;999.90;;;7.80;99.90;;;;;;5025094;28;20555;-69
2022/05/06 01:25:12;;;;;;;1999.90;999.90;;;7.80;99.90;;;;;;5029980;28;20545;-69
2022/05/06 01:27:44;;;;;;;1999.90;999.90;;;8.00;99.90;;;;;;5020262;28;20464;-69
2022/05/06 01:30:23;;;;;;;1999.90;999.90;;;8.20;99.90;;;;;;5021713;28;20546;-69
2022/05/06 01:32:51;;;;;;;1999.90;999.90;;;8.30;99.90;;;;;;5022031;28;20466;-68
2022/05/06 01:35:21;;;;;;;1999.90;999.90;;;8.30;99.90;;;;;;5030123;28;20467;-69
2022/05/06 01:37:52;;;;;;;1999.90;999.90;;;8.20;99.90;;;;;;5021096;28;20545;-69
2022/05/06 01:40:21;;;;;;;1999.90;999.90;;;8.20;99.90;;;;;;5022355;28;20867;-69
2022/05/06 01:42:51;;;;;;;1999.90;999.90;;;8.10;99.90;;;;;;5021485;28;20471;-69
2022/05/06 01:45:21;;;;;;;1999.90;999.90;;;8.10;99.90;;;;;;5030438;28;20483;-69
2022/05/06 01:47:48;;;;;;;1999.90;999.90;;;8.10;99.90;;;;;;5023324;28;20468;-69
2022/05/06 01:50:16;;;;;;;1999.90;999.90;;;8.10;99.90;;;;;;5021940;28;20459;-69
2022/05/06 01:52:45;;;;;;;1999.90;999.90;;;8.00;99.90;;;;;;5013085;28;20529;-69
2022/05/06 01:55:14;;;;;;;1999.90;999.90;;;7.90;99.90;;;;;;4990577;28;20542;-69
2022/05/06 01:57:41;;;;;;;1999.90;999.90;;;7.90;99.90;;;;;;4998485;28;20487;-69
2022/05/06 02:00:09;;;;;;;1999.90;999.90;;;7.90;99.90;;;;;;5022192;28;20455;-69
2022/05/06 02:02:36;;;;;;;1999.90;999.90;;;7.80;99.90;;;;;;5024027;28;20467;-69
2022/05/06 02:07:43;;;;;;;1999.90;999.90;;;7.20;99.90;;;;;;5022772;28;21047;-69
2022/05/06 02:10:10;;;;;;;1999.90;999.90;;;7.70;99.90;;;;;;5022037;28;20497;-68
2022/05/06 02:12:38;;;;;;;1999.90;999.90;;;7.60;99.90;;;;;;5024428;28;20951;-68
2022/05/06 02:15:05;;;;;;;1999.90;999.90;;;7.60;99.90;;;;;;5029700;28;20463;-69
2022/05/06 02:17:32;;;;;;;1999.90;999.90;;;7.60;99.90;;;;;;5026676;28;20464;-69
2022/05/06 02:19:59;;;;;;;1999.90;999.90;;;7.70;99.90;;;;;;5022892;28;20447;-69
2022/05/06 02:22:29;;;;;;;1999.90;999.90;;;7.70;99.90;;;;;;5027285;28;20438;-69
2022/05/06 02:24:56;;;;;;;1999.90;999.90;;;7.70;99.90;;;;;;5017977;28;20487;-69
2022/05/06 02:27:22;;;;;;;1999.90;999.90;;;7.70;99.90;;;;;;5031486;28;20447;-68
2022/05/06 02:35:19;;;;;;;1999.90;999.90;;;7.50;99.90;;;;;;5033836;28;20585;-71
2022/05/06 02:37:46;;;;;;;1999.90;999.90;;;7.50;99.90;;;;;;5028045;28;20569;-72
2022/05/06 02:40:13;;;;;;;1999.90;999.90;;;7.50;99.90;;;;;;5021789;28;20862;-71
2022/05/06 02:42:40;;;;;;;1999.90;999.90;;;7.50;99.90;;;;;;5030120;28;20443;-71
2022/05/06 02:45:10;;;;;;;1999.90;999.90;;;7.50;99.90;;;;;;5027558;28;20532;-71
2022/05/06 02:47:37;;;;;;;1999.90;999.90;;;7.50;99.90;;;;;;5031180;28;20473;-71
2022/05/06 02:50:04;;;;;;;1999.90;999.90;;;7.50;99.90;;;;;;5019000;28;20439;-72
2022/05/06 02:52:31;;;;;;;1999.90;999.90;;;7.50;99.90;;;;;;5016319;28;20498;-69
2022/05/06 02:54:58;;;;;;;1999.90;999.90;;;7.40;99.90;;;;;;5016116;28;20470;-71
2022/05/06 02:57:24;;;;;;;1999.90;999.90;;;7.40;99.90;;;;;;5032275;28;20458;-71
2022/05/06 02:59:51;;;;;;;1999.90;999.90;;;7.40;99.90;;;;;;5017923;28;20465;-69
2022/05/06 03:02:19;;;;;;;1999.90;999.90;;;7.30;99.90;;;;;;5035128;28;20493;-69
2022/05/06 03:04:45;;;;;;;1999.90;999.90;;;7.30;99.90;;;;;;5026165;28;20915;-69
2022/05/06 03:07:12;;;;;;;1999.90;999.90;;;7.30;99.90;;;;;;5033378;28;20504;-69
2022/05/06 03:09:39;;;;;;;1999.90;999.90;;;7.20;99.90;;;;;;5020898;28;20472;-69
2022/05/06 03:12:07;;;;;;;1999.90;999.90;;;7.20;99.90;;;;;;5034265;28;20443;-69
2022/05/06 03:14:34;;;;;;;1999.90;999.90;;;7.20;99.90;;;;;;5026452;28;20526;-68
2022/05/06 03:17:01;;;;;;;1999.90;999.90;;;7.20;99.90;;;;;;5029207;28;20943;-69
2022/05/06 03:19:29;;;;;;;1999.90;999.90;;;7.20;99.90;;;;;;5024398;28;20506;-68
2022/05/06 03:21:57;;;;;;;1999.90;999.90;;;7.20;99.90;;;;;;5017993;28;20467;-68
2022/05/06 03:24:23;;;;;;;1999.90;999.90;;;7.00;99.90;;;;;;5033351;28;20510;-69
2022/05/06 03:26:50;;;;;;;1999.90;999.90;;;7.10;99.90;;;;;;5030104;28;20536;-69
2022/05/06 03:29:17;;;;;;;1999.90;999.90;;;7.20;99.90;;;;;;5029357;28;20962;-69
2022/05/06 03:31:44;;;;;;;1999.90;999.90;;;7.20;99.90;;;;;;5015726;28;20599;-69
2022/05/06 03:34:11;;;;;;;1999.90;999.90;;;7.20;99.90;;;;;;5032692;28;20982;-69
2022/05/06 03:36:39;;;;;;;1999.90;999.90;;;7.30;99.90;;;;;;5028673;28;20460;-69
2022/05/06 03:39:06;;;;;;;1999.90;999.90;;;7.30;99.90;;;;;;5029868;28;20994;-69
2022/05/06 03:41:32;;;;;;;1999.90;999.90;;;7.40;99.90;;;;;;5011800;28;20451;-68
2022/05/06 03:43:59;;;;;;;1999.90;999.90;;;7.40;99.90;;;;;;5032698;28;20469;-68
2022/05/06 03:46:26;;;;;;;1999.90;999.90;;;7.40;99.90;;;;;;5032149;28;20535;-69
2022/05/06 03:48:53;;;;;;;1999.90;999.90;;;7.40;99.90;;;;;;5016639;28;20503;-68
2022/05/06 03:51:22;;;;;;;1999.90;999.90;;;7.30;99.90;;;;;;4993317;28;20448;-69
2022/05/06 03:53:50;;;;;;;1999.90;999.90;;;7.40;99.90;;;;;;5023077;28;20490;-69
2022/05/06 03:56:18;;;;;;;1999.90;999.90;;;7.30;99.90;;;;;;5029124;28;20991;-69
2022/05/06 03:58:44;;;;;;;1999.90;999.90;;;7.20;99.90;;;;;;5033101;28;20451;-69
2022/05/06 04:01:12;;;;;;;1999.90;999.90;;;7.20;99.90;;;;;;5027877;28;20460;-69
2022/05/06 04:03:39;;;;;;;1999.90;999.90;;;7.10;99.90;;;;;;5033141;28;20979;-69
2022/05/06 04:06:06;;;;;;;1999.90;999.90;;;6.90;99.90;;;;;;5032050;28;20482;-68
2022/05/06 04:08:33;;;;;;;1999.90;999.90;;;7.00;99.90;;;;;;5034024;28;20447;-69
2022/05/06 04:11:01;;;;;;;1999.90;999.90;;;6.90;99.90;;;;;;5018516;28;20890;-71
2022/05/06 04:13:28;;;;;;;1999.90;999.90;;;6.90;99.90;;;;;;5023401;28;21100;-70
2022/05/06 04:15:55;;;;;;;1999.90;999.90;;;6.90;99.90;;;;;;5024014;28;20448;-71
2022/05/06 04:18:21;;;;;;;1999.90;999.90;;;6.80;99.90;;;;;;5032529;28;20939;-70
2022/05/06 04:23:33;;;;;;;1999.90;999.90;;;6.70;99.90;;;;;;5031275;28;20462;-71
2022/05/06 04:26:03;;;;;;;1999.90;999.90;;;6.90;99.90;;;;;;5024985;28;20475;-71
2022/05/06 04:28:30;;;;;;;1999.90;999.90;;;6.90;99.90;;;;;;5033020;28;20513;-72
2022/05/06 04:30:58;;;;;;;1999.90;999.90;;;7.10;99.90;;;;;;5022685;28;20459;-71
2022/05/06 04:33:25;;;;;;;1999.90;999.90;;;7.10;99.90;;;;;;5032526;28;20475;-71
2022/05/06 04:35:54;;;;;;;1999.90;999.90;;;7.20;99.90;;;;;;5025354;28;20550;-71
2022/05/06 04:38:22;;;;;;;1999.90;999.90;;;7.30;99.90;;;;;;5032733;28;20450;-69
2022/05/06 04:40:49;;;;;;;1999.90;999.90;;;7.60;99.90;;;;;;5025893;28;20474;-69
2022/05/06 04:43:20;;;;;;;1999.90;999.90;;;7.80;99.90;;;;;;5033073;28;20455;-69
2022/05/06 04:45:48;;;;;;;1999.90;999.90;;;7.80;99.90;;;;;;5025930;28;20522;-68
2022/05/06 04:48:15;;;;;;;1999.90;999.90;;;8.10;99.90;;;;;;5032066;28;20935;-68
2022/05/06 04:50:43;;;;;;;1999.90;999.90;;;8.30;99.90;;;;;;5027207;28;20471;-68
2022/05/06 04:53:11;;;;;;;1999.90;999.90;;;8.30;99.90;;;;;;5027893;28;20534;-69
2022/05/06 04:55:40;;;;;;;1999.90;999.90;;;8.60;99.90;;;;;;5027378;28;20513;-69
2022/05/06 04:58:07;;;;;;;1999.90;999.90;;;9.00;99.90;;;;;;5032730;28;20443;-68
2022/05/06 05:00:36;;;;;;;1999.90;999.90;;;9.00;99.90;;;;;;5025431;28;20474;-69
2022/05/06 05:03:03;;;;;;;1999.90;999.90;;;9.30;99.90;;;;;;5015933;28;20505;-68
2022/05/06 05:05:30;;;;;;;1999.90;999.90;;;9.70;99.90;;;;;;5018390;28;21068;-68
2022/05/06 05:07:57;;;;;;;1999.90;999.90;;;9.80;99.90;;;;;;5025303;28;20443;-69
2022/05/06 05:10:24;;;;;;;1999.90;999.90;;;10.30;99.90;;;;;;5024461;28;20470;-69
2022/05/06 05:12:51;;;;;;;1999.90;999.90;;;10.60;99.90;;;;;;5032680;28;20509;-68
2022/05/06 05:15:18;;;;;;;1999.90;999.90;;;10.70;99.90;;;;;;5033247;28;20975;-70
2022/05/06 05:17:47;;;;;;;1999.90;999.90;;;11.10;99.90;;;;;;5033495;28;20577;-69
2022/05/06 05:20:14;;;;;;;1999.90;999.90;;;11.20;99.90;;;;;;5024038;28;20554;-68
2022/05/06 05:22:41;;;;;;;1999.90;999.90;;;11.30;99.90;;;;;;5012489;28;21014;-69
2022/05/06 05:25:09;;;;;;;1999.90;999.90;;;11.60;99.90;;;;;;5012934;28;20480;-69
2022/05/06 05:27:37;;;;;;;1999.90;999.90;;;11.80;99.90;;;;;;5013942;28;20507;-70
2022/05/06 05:30:07;;;;;;;1999.90;999.90;;;12.10;99.90;;;;;;5012613;28;20547;-70
2022/05/06 05:32:33;;;;;;;1999.90;999.90;;;12.30;99.90;;;;;;5012572;28;20444;-70
2022/05/06 05:35:02;;;;;;;1999.90;999.90;;;12.40;99.90;;;;;;5012688;28;20468;-71
2022/05/06 05:37:28;;;;;;;1999.90;999.90;;;12.60;99.90;;;;;;5008435;28;20875;-71
2022/05/06 05:39:55;;;;;;;1999.90;999.90;;;12.80;99.90;;;;;;5011360;28;20952;-71
2022/05/06 05:42:22;;;;;;;1999.90;999.90;;;12.60;99.90;;;;;;5019017;28;20521;-71
2022/05/06 05:50:15;;;;;;;1999.90;999.90;;;13.70;99.90;;;;;;5021706;28;20466;-72
2022/05/06 05:52:41;;;;;;;1999.90;999.90;;;13.90;99.90;;;;;;5020502;28;20459;-71
2022/05/06 05:55:09;;;;;;;1999.90;999.90;;;14.10;99.90;;;;;;5008672;28;20480;-71
2022/05/06 05:57:36;;;;;;;1999.90;999.90;;;14.30;99.90;;;;;;5032423;28;20443;-70
2022/05/06 06:00:03;;;;;;;1999.90;999.90;;;14.50;99.90;;;;;;5023833;28;21050;-71
2022/05/06 06:02:31;;;;;;;1999.90;999.90;;;14.70;99.90;;;;;;5031348;28;20545;-70
2022/05/06 06:04:58;;;;;;;1999.90;999.90;;;14.60;99.90;;;;;;5029857;28;20483;-71
2022/05/06 06:07:26;;;;;;;1999.90;999.90;;;14.80;99.90;;;;;;5035797;28;20486;-71
2022/05/06 06:09:53;;;;;;;1999.90;999.90;;;15.10;99.90;;;;;;5030159;28;20593;-71
2022/05/06 06:12:19;;;;;;;1999.90;999.90;;;15.40;99.90;;;;;;5020501;28;20510;-71
2022/05/06 06:14:46;;;;;;;1999.90;999.90;;;15.70;99.90;;;;;;5025038;28;20483;-70
2022/05/06 06:17:12;;;;;;;1999.90;999.90;;;15.80;99.90;;;;;;5035781;28;20521;-70
2022/05/06 06:19:39;;;;;;;1999.90;999.90;;;16.10;99.90;;;;;;5029592;28;20464;-71
2022/05/06 06:22:06;;;;;;;1999.90;999.90;;;16.10;99.90;;;;;;5035346;28;20431;-70
2022/05/06 06:24:34;;;;;;;1999.90;999.90;;;15.90;99.90;;;;;;5030348;28;20553;-70
2022/05/06 06:27:00;;;;;;;1999.90;999.90;;;15.80;99.90;;;;;;5030578;28;20490;-71
2022/05/06 06:29:29;;;;;;;1999.90;999.90;;;15.90;99.90;;;;;;5023563;28;20468;-70
2022/05/06 06:31:56;;;;;;;1999.90;999.90;;;15.80;99.90;;;;;;5019984;28;20512;-70
2022/05/06 06:34:22;;;;;;;1999.90;999.90;;;15.70;99.90;;;;;;5028517;28;20994;-71
2022/05/06 06:36:49;;;;;;;1999.90;999.90;;;16.00;99.90;;;;;;5032927;28;20513;-70
2022/05/06 06:39:16;;;;;;;1999.90;999.90;;;16.30;99.90;;;;;;5028992;28;20467;-72
2022/05/06 06:41:44;;;;;;;1999.90;999.90;;;16.00;99.90;;;;;;5035131;28;20451;-71
2022/05/06 06:44:10;;;;;;;1999.90;999.90;;;16.50;99.90;;;;;;5028679;28;20849;-71
2022/05/06 06:46:37;;;;;;;1999.90;999.90;;;16.70;99.90;;;;;;5030041;28;20483;-71
2022/05/06 06:49:04;;;;;;;1999.90;999.90;;;16.90;99.90;;;;;;5027334;28;20467;-74
2022/05/06 06:51:31;;;;;;;1999.90;999.90;;;17.20;99.90;;;;;;5021997;28;20469;-73
2022/05/06 06:53:58;;;;;;;1999.90;999.90;;;17.50;99.90;;;;;;5026397;28;20562;-72
2022/05/06 06:56:25;;;;;;;1999.90;999.90;;;17.60;98.90;;;;;;5019346;28;20456;-72
2022/05/06 06:58:53;;;;;;;1999.90;999.90;;;17.60;98.60;;;;;;5010406;28;20455;-74
2022/05/06 07:01:21;;;;;;;1999.90;999.90;;;17.70;97.90;;;;;;5024738;28;20839;-74
2022/05/06 07:03:47;;;;;;;1999.90;999.90;;;17.60;98.10;;;;;;5017619;28;20487;-74
2022/05/06 07:11:56;;;;;;;1999.90;999.90;;;17.90;99.70;;;;;;5031552;28;20418;-73
2022/05/06 07:14:25;;;;;;;1999.90;999.90;;;18.20;99.90;;;;;;5028039;28;20466;-74
2022/05/06 07:16:53;;;;;;;1999.90;999.90;;;18.30;99.20;;;;;;5034100;28;20526;-74
2022/05/06 07:19:20;;;;;;;1999.90;999.90;;;18.60;98.90;;;;;;5020451;28;21032;-74
2022/05/06 07:21:49;;;;;;;1999.90;999.90;;;18.60;99.50;;;;;;5032450;28;20453;-70
2022/05/06 07:24:16;;;;;;;1999.90;999.90;;;18.80;99.20;;;;;;5014718;28;20484;-72
2022/05/06 07:26:43;;;;;;;1999.90;999.90;;;18.60;99.40;;;;;;5033486;28;20533;-71
2022/05/06 07:29:10;;;;;;;1999.90;999.90;;;18.60;99.90;;;;;;5035048;28;20502;-70
2022/05/06 07:31:38;;;;;;;1999.90;999.90;;;18.50;99.20;;;;;;5034048;28;20447;-71
2022/05/06 07:34:04;;;;;;;1999.90;999.90;;;18.80;99.30;;;;;;5023684;28;20529;-71
2022/05/06 07:36:31;;;;;;;1999.90;999.90;;;18.80;99.10;;;;;;5014457;28;20455;-72
2022/05/06 07:38:57;;;;;;;1999.90;999.90;;;18.70;98.90;;;;;;5021143;28;20455;-71
2022/05/06 07:41:24;;;;;;;1999.90;999.90;;;18.90;98.80;;;;;;5030415;28;20509;-71
2022/05/06 07:43:51;;;;;;;1999.90;999.90;;;18.90;98.60;;;;;;5026574;28;21096;-72
2022/05/06 07:46:17;;;;;;;1999.90;999.90;;;19.00;98.00;;;;;;5017385;28;20554;-72
2022/05/06 07:48:46;;;;;;;1999.90;999.90;;;19.10;98.30;;;;;;5020675;28;20824;-71
2022/05/06 07:51:12;;;;;;;1999.90;999.90;;;19.30;97.70;;;;;;5015358;28;20471;-70
2022/05/06 07:53:39;;;;;;;1999.90;999.90;;;19.00;97.70;;;;;;5023669;28;20579;-69
2022/05/06 07:56:06;;;;;;;1999.90;999.90;;;18.60;98.00;;;;;;5030565;28;20436;-71
2022/05/06 07:58:33;;;;;;;1999.90;999.90;;;18.70;99.10;;;;;;5025686;28;20467;-70
2022/05/06 08:01:00;;;;;;;1999.90;999.90;;;18.70;98.80;;;;;;5025016;28;21034;-70
2022/05/06 08:06:12;;;;;;;1999.90;999.90;;;19.10;98.30;;;;;;5022472;28;20553;-71
2022/05/06 08:08:39;;;;;;;1999.90;999.90;;;19.10;97.00;;;;;;5022051;28;20464;-71
2022/05/06 08:11:05;;;;;;;1999.90;999.90;;;18.90;97.10;;;;;;5033610;28;20500;-71
2022/05/06 08:13:32;;;;;;;1999.90;999.90;;;18.70;97.20;;;;;;5023470;28;20496;-71
2022/05/06 08:15:59;;;;;;;1999.90;999.90;;;19.20;97.10;;;;;;5018206;28;20467;-70
2022/05/06 08:18:27;;;;;;;1999.90;999.90;;;19.70;95.70;;;;;;5020055;28;20468;-71
2022/05/06 08:20:54;;;;;;;1999.90;999.90;;;19.70;96.10;;;;;;5021436;28;20466;-71
2022/05/06 08:23:23;;;;;;;1999.90;999.90;;;19.80;94.30;;;;;;5020649;28;20520;-71
2022/05/06 08:25:50;;;;;;;1999.90;999.90;;;19.80;94.80;;;;;;5020362;28;20463;-71
2022/05/06 08:28:19;;;;;;;1999.90;999.90;;;19.70;94.70;;;;;;5020687;28;20538;-71
2022/05/06 08:30:46;;;;;;;1999.90;999.90;;;19.60;94.60;;;;;;5033482;28;20447;-70
2022/05/06 08:33:13;;;;;;;1999.90;999.90;;;19.30;95.20;;;;;;5026832;28;20498;-70
2022/05/06 08:35:40;;;;;;;1999.90;999.90;;;19.20;95.60;;;;;;5015629;28;20475;-71
2022/05/06 08:38:08;;;;;;;1999.90;999.90;;;19.40;95.10;;;;;;5028288;28;21022;-70
2022/05/06 08:40:36;;;;;;;1999.90;999.90;;;19.80;94.30;;;;;;5031390;28;20457;-71
2022/05/06 08:43:03;;;;;;;1999.90;999.90;;;19.60;94.20;;;;;;5019572;28;20934;-70
2022/05/06 08:51:00;;;;;;;1999.90;999.90;;;19.30;94.40;;;;;;5015690;28;20454;-71
2022/05/06 08:53:29;;;;;;;1999.90;999.90;;;19.50;94.60;;;;;;5017983;28;20488;-71
2022/05/06 08:55:59;;;;;;;1999.90;999.90;;;19.70;94.70;;;;;;5025839;28;20510;-71
2022/05/06 08:58:27;;;;;;;1999.90;999.90;;;19.90;94.70;;;;;;5020088;28;20467;-71
2022/05/06 09:01:01;;;;;;;1999.90;999.90;;;20.30;94.20;;;;;;5008747;28;20491;-72
2022/05/06 09:03:28;;;;;;;1999.90;999.90;;;20.20;93.90;;;;;;5028288;28;20467;-72
2022/05/06 09:05:57;;;;;;;1999.90;999.90;;;20.50;94.20;;;;;;5021808;28;20489;-71
2022/05/06 09:08:23;;;;;;;1999.90;999.90;;;20.20;94.30;;;;;;5028213;28;20570;-71
2022/05/06 09:11:03;;;;;;;1999.90;999.90;;;19.90;94.10;;;;;;5018422;28;20872;-70
2022/05/06 09:13:30;;;;;;;1999.90;999.90;;;20.30;94.00;;;;;;5028594;28;20507;-71
2022/05/06 09:19:12;;;;;;;1999.90;999.90;;;20.80;92.80;;;;;;5015635;28;20963;-71
2022/05/06 09:21:39;;;;;;;1999.90;999.90;;;20.20;93.50;;;;;;5027470;28;20953;-70
2022/05/06 09:24:27;;;;;;;1999.90;999.90;;;20.20;93.60;;;;;;5021078;28;20636;-72
2022/05/06 09:27:04;;;;;;;1999.90;999.90;;;20.50;93.50;;;;;;5017831;28;20482;-72
2022/05/06 09:29:36;;;;;;;1999.90;999.90;;;20.90;93.30;;;;;;5030377;28;20439;-70
2022/05/06 09:32:18;;;;;;;1999.90;999.90;;;20.30;93.50;;;;;;5025054;28;20444;-70
2022/05/06 09:34:45;;;;;;;1999.90;999.90;;;20.50;93.70;;;;;;5012224;28;20894;-71
2022/05/06 09:37:12;;;;;;;1999.90;999.90;;;20.60;94.20;;;;;;5012097;28;20448;-72
2022/05/06 09:39:39;;;;;;;1999.90;999.90;;;20.90;94.00;;;;;;5012492;28;20448;-72
2022/05/06 09:42:08;;;;;;;1999.90;999.90;;;21.10;92.90;;;;;;5009281;28;20455;-71
2022/05/06 09:44:35;;;;;;;1999.90;999.90;;;21.20;92.70;;;;;;5012049;28;20472;-71
2022/05/06 09:47:10;;;;;;;1999.90;999.90;;;21.10;92.50;;;;;;5015026;28;20509;-72
2022/05/06 09:49:41;;;;;;;1999.90;999.90;;;21.40;92.70;;;;;;5016170;28;20456;-71
2022/05/06 09:52:12;;;;;;;1999.90;999.90;;;21.30;92.10;;;;;;5011437;28;21022;-70
2022/05/06 09:54:42;;;;;;;1999.90;999.90;;;21.40;92.10;;;;;;5012110;28;20508;-71
2022/05/06 09:57:11;;;;;;;1999.90;999.90;;;21.60;92.20;;;;;;5012372;28;20444;-72
2022/05/06 09:59:38;;;;;;;1999.90;999.90;;;21.30;93.10;;;;;;5012053;28;20444;-71
2022/05/06 10:02:06;;;;;;;1999.90;999.90;;;22.00;93.10;;;;;;5011408;28;20506;-70
2022/05/06 10:04:33;;;;;;;1999.90;999.90;;;22.00;91.30;;;;;;5011665;28;20972;-71
2022/05/06 10:07:01;;;;;;;1999.90;999.90;;;22.00;91.50;;;;;;5011759;28;21000;-72
2022/05/06 10:09:32;;;;;;;1999.90;999.90;;;21.50;92.10;;;;;;5011936;28;20456;-71
2022/05/06 10:12:03;;;;;;;1999.90;999.90;;;21.30;92.50;;;;;;5012164;28;20436;-70
2022/05/06 10:14:32;;;;;;;1999.90;999.90;;;21.10;92.20;;;;;;5011893;28;20472;-71
2022/05/06 10:16:59;;;;;;;1999.90;999.90;;;21.10;92.10;;;;;;5011666;28;20448;-71
2022/05/06 10:19:26;;;;;;;1999.90;999.90;;;21.20;92.00;;;;;;5011659;28;20448;-72
2022/05/06 10:21:54;;;;;;;1999.90;999.90;;;21.10;92.40;;;;;;5013043;28;20539;-70
2022/05/06 10:24:21;;;;;;;1999.90;999.90;;;20.50;92.10;;;;;;5013476;28;20484;-70
2022/05/06 10:26:49;;;;;;;1999.90;999.90;;;20.00;92.70;;;;;;5014237;28;20468;-70
2022/05/06 10:32:57;;;;;;;1999.90;999.90;;;19.60;93.40;;;;;;5005072;28;20459;-71
2022/05/06 10:35:41;;;;;;;1999.90;999.90;;;20.40;93.00;;;;;;5023615;28;20993;-71
2022/05/06 10:38:19;;;;;;;1999.90;999.90;;;21.10;91.90;;;;;;4996605;28;20460;-71
2022/05/06 10:40:57;;;;;;;1999.90;999.90;;;21.30;91.50;;;;;;5025453;28;20451;-71
2022/05/06 10:43:51;;;;;;;1999.90;999.90;;;21.60;90.90;;;;;;5023087;28;21016;-72
2022/05/06 10:46:35;;;;;;;1999.90;999.90;;;22.10;91.10;;;;;;5025610;28;20843;-72
2022/05/06 10:49:48;;;;;;;1999.90;999.90;;;22.40;89.90;;;;;;5033434;28;20438;-70
2022/05/06 10:52:41;;;;;;;1999.90;999.90;;;22.60;90.30;;;;;;5014961;28;20451;-72
2022/05/06 10:55:10;;;;;;;1999.90;999.90;;;22.00;88.30;;;;;;5015962;28;20460;-71
2022/05/06 10:57:50;;;;;;;1999.90;999.90;;;21.10;87.00;;;;;;5017130;28;20928;-71
2022/05/06 11:00:18;;;;;;;1999.90;999.90;;;20.50;85.10;;;;;;5024807;28;20455;-71
2022/05/06 11:02:45;;;;;;;1999.90;999.90;;;20.70;85.60;;;;;;5034125;28;21021;-71
2022/05/06 11:05:14;;;;;;;1999.90;999.90;;;20.70;87.30;;;;;;5028911;28;20520;-71
2022/05/06 11:07:44;;;;;;;1999.90;999.90;;;20.90;84.80;;;;;;5034564;28;20486;-71
2022/05/06 11:10:12;;;;;;;1999.90;999.90;;;20.90;85.10;;;;;;5024367;28;20512;-71
2022/05/06 11:12:40;;;;;;;1999.90;999.90;;;21.30;85.40;;;;;;5014408;28;20448;-71
2022/05/06 11:15:09;;;;;;;1999.90;999.90;;;21.80;86.00;;;;;;5025950;28;20486;-71
2022/05/06 11:17:36;;;;;;;1999.90;999.90;;;22.30;87.40;;;;;;5034261;28;20447;-71
2022/05/06 11:20:05;;;;;;;1999.90;999.90;;;22.20;86.30;;;;;;5023342;28;20506;-72
2022/05/06 11:22:33;;;;;;;1999.90;999.90;;;22.10;86.40;;;;;;5026108;28;20517;-71
2022/05/06 11:25:01;;;;;;;1999.90;999.90;;;22.00;87.10;;;;;;5021305;28;20540;-70
2022/05/06 11:27:28;;;;;;;1999.90;999.90;;;21.50;86.80;;;;;;5033197;28;20489;-69
2022/05/06 11:29:56;;;;;;;1999.90;999.90;;;21.10;87.70;;;;;;5025957;28;20467;-69
2022/05/06 11:32:24;;;;;;;1999.90;999.90;;;20.80;88.70;;;;;;5031678;28;20451;-70
2022/05/06 11:34:56;;;;;;;1999.90;999.90;;;20.60;89.40;;;;;;5025381;28;20482;-70
2022/05/06 11:37:23;;;;;;;1999.90;999.90;;;20.70;90.40;;;;;;5034395;28;20486;-70
2022/05/06 11:39:50;;;;;;;1999.90;999.90;;;21.30;90.90;;;;;;5025439;28;20498;-70
2022/05/06 11:42:22;;;;;;;1999.90;999.90;;;21.80;89.90;;;;;;5033817;28;20443;-70
2022/05/06 11:47:41;;;;;;;1999.90;999.90;;;22.70;85.30;;;;;;5018575;28;20482;-68
2022/05/06 11:50:09;;;;;;;1999.90;999.90;;;22.40;84.80;;;;;;5030588;28;20451;-70
2022/05/06 11:52:37;;;;;;;1999.90;999.90;;;22.20;87.10;;;;;;5030483;28;20535;-70
2022/05/06 11:55:05;;;;;;;1999.90;999.90;;;21.60;86.20;;;;;;5033511;28;20524;-70
2022/05/06 11:57:35;;;;;;;1999.90;999.90;;;21.50;87.90;;;;;;5030530;28;20443;-70
2022/05/06 12:00:03;;;;;;;1999.90;999.90;;;21.30;89.10;;;;;;5028241;28;20443;-70
2022/05/06 12:02:29;;;;;;;1999.90;999.90;;;21.50;89.60;;;;;;5032341;28;20840;-69
2022/05/06 12:04:56;;;;;;;1999.90;999.90;;;21.70;86.90;;;;;;5033573;28;20459;-70
2022/05/06 12:07:40;;;;;;;1999.90;999.90;;;21.90;87.00;;;;;;5033774;28;20483;-70
2022/05/06 12:10:07;;;;;;;1999.90;999.90;;;22.20;85.40;;;;;;5015200;28;20932;-70
2022/05/06 12:12:51;;;;;;;1999.90;999.90;;;21.90;86.00;;;;;;5028724;28;20447;-69
2022/05/06 12:15:18;;;;;;;1999.90;999.90;;;21.60;87.90;;;;;;5007383;28;20525;-70
2022/05/06 12:17:45;;;;;;;1999.90;999.90;;;21.80;86.70;;;;;;5028293;28;20960;-70
2022/05/06 12:20:33;;;;;;;1999.90;999.90;;;21.70;87.30;;;;;;5028199;28;20455;-69
2022/05/06 12:23:00;;;;;;;1999.90;999.90;;;21.40;85.40;;;;;;5031073;28;20459;-70
2022/05/06 12:25:28;;;;;;;1999.90;999.90;;;21.40;86.30;;;;;;5031393;28;20495;-70
2022/05/06 12:28:07;;;;;;;1999.90;999.90;;;21.30;85.10;;;;;;5019113;28;20488;-70
2022/05/06 12:30:34;;;;;;;1999.90;999.90;;;21.60;85.80;;;;;;5019328;28;20454;-70
2022/05/06 12:33:06;;;;;;;1999.90;999.90;;;21.70;84.90;;;;;;5032784;28;20509;-70
2022/05/06 12:35:33;;;;;;;1999.90;999.90;;;21.60;84.80;;;;;;5028600;28;20467;-69
2022/05/06 12:38:01;;;;;;;1999.90;999.90;;;21.70;82.20;;;;;;5029658;28;20443;-69
2022/05/06 12:40:32;;;;;;;1999.90;999.90;;;21.40;83.50;;;;;;5014381;28;20555;-69
2022/05/06 12:43:08;;;;;;;1999.90;999.90;;;21.20;83.10;;;;;;5020135;28;20938;-69
2022/05/06 12:45:36;;;;;;;1999.90;999.90;;;21.10;84.90;;;;;;5019171;28;20910;-70
2022/05/06 12:50:47;;;;;;;1999.90;999.90;;;21.70;84.10;;;;;;5030669;28;20649;-70
2022/05/06 12:53:14;;;;;;;1999.90;999.90;;;21.80;82.40;;;;;;5025903;28;20459;-70